Time;durP1;ratioP1;P1;durP2;ratioP2;P2;SDS_P1;SDS_P2;PMS_P1;PMS_P2;Temp;Humidity;BMP_temperature;BMP_pressure;BME280_temperature;BME280_humidity;BME280_pressure;Samples;Min_cycle;Max_cycle;Signal;HPM_P1;HPM_P2
2021/05/30 01:03:36;;;;;;;4.40;2.90;;;;;;;20.05;47.83;102706.38;5013726;28;20125;-61
2021/05/30 01:06:02;;;;;;;4.55;2.75;;;;;;;20.04;48.28;102707.31;5013615;28;20034;-60
2021/05/30 01:08:27;;;;;;;4.80;2.70;;;;;;;20.02;47.73;102706.56;5014132;28;20036;-62
2021/05/30 01:10:55;;;;;;;4.05;2.60;;;;;;;20.02;48.13;102701.28;5014447;28;20055;-60
2021/05/30 01:13:22;;;;;;;4.53;2.75;;;;;;;20.02;47.77;102701.28;5013614;28;20029;-60
2021/05/30 01:15:48;;;;;;;4.50;2.60;;;;;;;20.02;47.67;102709.22;5014179;28;20085;-60
2021/05/30 01:18:20;;;;;;;4.00;2.60;;;;;;;20.03;47.65;102711.78;5013231;28;20026;-61
2021/05/30 01:20:45;;;;;;;5.18;3.00;;;;;;;20.03;47.99;102711.78;5014181;28;20040;-60
2021/05/30 01:23:12;;;;;;;4.72;2.90;;;;;;;20.02;47.87;102712.72;5013772;28;20370;-60
2021/05/30 01:25:38;;;;;;;4.75;2.83;;;;;;;20.01;47.95;102707.50;5013702;28;20102;-60
2021/05/30 01:28:05;;;;;;;4.75;2.60;;;;;;;20.02;47.86;102712.72;5013823;28;20034;-61
2021/05/30 01:30:31;;;;;;;4.82;2.65;;;;;;;20.01;47.64;102715.44;5013682;28;20459;-60
2021/05/30 01:32:56;;;;;;;4.60;3.05;;;;;;;20.00;47.48;102714.59;5013204;28;20037;-61
2021/05/30 01:35:21;;;;;;;5.30;2.80;;;;;;;20.01;47.42;102708.38;5013472;28;20038;-61
2021/05/30 01:37:48;;;;;;;3.75;2.45;;;;;;;20.00;47.57;102709.31;5013431;28;20423;-61
2021/05/30 01:40:14;;;;;;;4.32;2.70;;;;;;;20.00;47.34;102711.13;5012806;28;20414;-60
2021/05/30 01:42:40;;;;;;;4.90;3.15;;;;;;;19.98;47.61;102711.22;5028913;28;20080;-61
2021/05/30 01:45:07;;;;;;;4.10;2.50;;;;;;;19.99;47.56;102712.88;5012838;28;20399;-61
2021/05/30 01:47:36;;;;;;;4.93;2.63;;;;;;;19.97;47.55;102704.19;5012947;28;20465;-60
2021/05/30 01:50:01;;;;;;;4.22;2.83;;;;;;;19.98;47.51;102708.56;5013185;28;20022;-60
2021/05/30 01:52:26;;;;;;;4.15;2.47;;;;;;;19.96;47.72;102704.28;5013305;28;20393;-60
2021/05/30 01:54:52;;;;;;;5.03;2.70;;;;;;;19.97;47.61;102708.66;5012885;28;20049;-61
2021/05/30 01:57:17;;;;;;;4.05;2.47;;;;;;;19.95;47.75;102706.09;5013051;28;20279;-61
2021/05/30 01:59:45;;;;;;;4.57;3.03;;;;;;;19.95;47.64;102706.09;5013195;28;20057;-61
2021/05/30 02:02:11;;;;;;;4.10;2.40;;;;;;;19.94;47.42;102699.09;5010832;28;20117;-60
2021/05/30 02:04:43;;;;;;;4.72;2.50;;;;;;;19.93;47.58;102698.25;5013011;28;20049;-62
2021/05/30 02:07:08;;;;;;;4.18;2.53;;;;;;;19.93;47.18;102700.03;5013049;28;20030;-62
2021/05/30 02:09:36;;;;;;;4.18;2.58;;;;;;;19.93;47.44;102695.59;5012800;28;20050;-61
2021/05/30 02:12:03;;;;;;;4.05;2.50;;;;;;;19.92;47.52;102704.47;5012678;28;20025;-61
2021/05/30 02:14:32;;;;;;;5.18;2.70;;;;;;;19.92;47.24;102701.81;5012438;28;20022;-60
2021/05/30 02:16:57;;;;;;;4.63;2.80;;;;;;;19.91;47.39;102697.47;5012946;28;20464;-60
2021/05/30 02:19:22;;;;;;;3.97;2.28;;;;;;;19.90;47.61;102693.13;5012136;28;20663;-60
2021/05/30 02:21:50;;;;;;;3.70;2.40;;;;;;;19.90;47.45;102695.78;5012649;28;20076;-60
2021/05/30 02:24:17;;;;;;;3.85;2.40;;;;;;;19.91;47.32;102701.91;5012688;28;20026;-61
2021/05/30 02:26:43;;;;;;;4.50;2.70;;;;;;;19.89;46.98;102698.53;5012578;28;20485;-61
2021/05/30 02:29:09;;;;;;;5.68;2.55;;;;;;;19.88;47.15;102699.44;5012048;28;20029;-61
2021/05/30 02:31:34;;;;;;;4.35;2.58;;;;;;;19.90;47.56;102694.91;5012778;28;20109;-61
2021/05/30 02:34:00;;;;;;;4.60;2.67;;;;;;;19.86;47.37;102688.13;5012562;28;20100;-60
2021/05/30 02:36:27;;;;;;;4.82;2.45;;;;;;;19.88;47.36;102696.81;5012092;28;20018;-60
2021/05/30 02:38:53;;;;;;;4.28;2.60;;;;;;;19.87;47.33;102698.63;5012784;28;20083;-60
2021/05/30 02:41:19;;;;;;;4.18;2.55;;;;;;;19.87;47.22;102701.25;5012220;28;20026;-61
2021/05/30 02:43:44;;;;;;;3.72;2.50;;;;;;;19.86;47.15;102701.34;5012303;28;20409;-61
2021/05/30 02:46:09;;;;;;;4.60;2.60;;;;;;;19.86;47.11;102698.69;5012210;28;20588;-60
2021/05/30 02:48:37;;;;;;;4.30;2.80;;;;;;;19.85;46.93;102708.44;5012478;28;20022;-63
2021/05/30 02:51:03;;;;;;;4.70;2.72;;;;;;;19.85;46.97;102700.50;5011849;28;20104;-61
2021/05/30 02:53:30;;;;;;;4.10;2.58;;;;;;;19.86;47.34;102701.34;5012607;28;20131;-61
2021/05/30 02:56:00;;;;;;;4.10;2.40;;;;;;;19.84;46.92;102697.94;5012292;28;20496;-61
2021/05/30 02:58:26;;;;;;;4.50;2.63;;;;;;;19.83;47.10;102696.25;5011458;28;20473;-61
2021/05/30 03:00:52;;;;;;;4.22;2.75;;;;;;;19.81;47.07;102701.63;5011956;28;20076;-61
2021/05/30 03:03:17;;;;;;;4.00;2.53;;;;;;;19.83;46.95;102704.19;5011933;28;20148;-60
2021/05/30 03:05:43;;;;;;;5.35;2.85;;;;;;;19.81;47.06;102690.19;5011830;28;20490;-61
2021/05/30 03:08:08;;;;;;;3.77;2.40;;;;;;;19.82;46.96;102703.34;5011516;28;20034;-61
2021/05/30 03:10:33;;;;;;;4.63;2.72;;;;;;;19.81;46.84;102691.03;5012161;28;20280;-61
2021/05/30 03:13:02;;;;;;;4.80;2.58;;;;;;;19.80;47.08;102701.72;5012039;28;20171;-60
2021/05/30 03:15:27;;;;;;;4.13;2.60;;;;;;;19.80;46.84;102701.72;5011947;28;20022;-60
2021/05/30 03:17:53;;;;;;;4.07;2.65;;;;;;;19.78;47.00;102704.44;5011931;28;20100;-62
2021/05/30 03:20:19;;;;;;;4.32;2.67;;;;;;;19.79;47.13;102700.88;5011965;28;20537;-61
2021/05/30 03:22:47;;;;;;;4.38;2.55;;;;;;;19.79;46.82;102702.63;5012098;28;20087;-61
2021/05/30 03:25:13;;;;;;;4.30;2.72;;;;;;;19.79;46.98;102702.63;5011331;28;20030;-61
2021/05/30 03:27:38;;;;;;;4.20;2.50;;;;;;;19.78;46.86;102698.31;5012166;28;20030;-61
2021/05/30 03:30:05;;;;;;;5.10;2.60;;;;;;;19.77;46.68;102700.09;5011218;28;20021;-60
2021/05/30 03:32:30;;;;;;;4.10;2.95;;;;;;;19.77;46.81;102701.88;5014595;28;20022;-61
2021/05/30 03:34:56;;;;;;;5.13;2.70;;;;;;;19.77;46.93;102705.38;5016249;28;20021;-60
2021/05/30 03:37:21;;;;;;;3.72;2.50;;;;;;;19.77;46.59;102699.25;5015635;28;20253;-60
2021/05/30 03:39:47;;;;;;;4.22;2.45;;;;;;;19.75;46.88;102699.28;5015472;28;20109;-61
2021/05/30 03:42:26;;;;;;;5.03;2.60;;;;;;;19.75;46.56;102702.78;5015635;28;20485;-60
2021/05/30 03:44:51;;;;;;;4.28;2.60;;;;;;;19.73;46.48;102698.53;5015634;28;20030;-61
2021/05/30 03:47:16;;;;;;;4.20;2.80;;;;;;;19.73;46.46;102699.38;5015100;28;20355;-61
2021/05/30 03:49:42;;;;;;;3.90;2.58;;;;;;;19.72;46.87;102702.97;5015766;28;20030;-61
2021/05/30 03:52:11;;;;;;;4.40;2.58;;;;;;;19.73;46.57;102706.47;5015502;28;20419;-61
2021/05/30 03:54:36;;;;;;;4.53;2.85;;;;;;;19.73;46.54;102709.13;5015096;28;20429;-62
2021/05/30 03:57:02;;;;;;;3.65;2.40;;;;;;;19.72;46.49;102708.25;5015113;28;20034;-60
2021/05/30 03:59:28;;;;;;;5.38;2.80;;;;;;;19.73;46.39;102711.78;5015593;28;20106;-61
2021/05/30 04:01:53;;;;;;;3.92;2.50;;;;;;;19.71;46.64;102703.06;5015168;28;20107;-61
2021/05/30 04:04:21;;;;;;;6.75;2.72;;;;;;;19.71;46.49;102703.06;5014801;28;20042;-62
2021/05/30 04:06:49;;;;;;;4.10;2.45;;;;;;;19.71;46.22;102711.00;5015622;28;20049;-61
2021/05/30 04:09:14;;;;;;;3.90;2.60;;;;;;;19.71;46.35;102711.00;5014723;28;20026;-60
2021/05/30 04:11:40;;;;;;;4.00;2.30;;;;;;;19.69;46.90;102703.19;5015123;28;20025;-61
2021/05/30 04:14:05;;;;;;;4.13;2.40;;;;;;;19.70;46.52;102714.59;5014467;28;20350;-61
2021/05/30 04:16:30;;;;;;;4.47;2.50;;;;;;;19.69;46.33;102705.81;5015399;28;20030;-60
2021/05/30 04:18:55;;;;;;;4.77;2.80;;;;;;;19.69;46.45;102703.19;5015227;28;20393;-61
2021/05/30 04:21:21;;;;;;;4.57;2.45;;;;;;;19.69;46.30;102711.09;5014246;28;20306;-61
2021/05/30 04:23:46;;;;;;;4.13;2.70;;;;;;;19.69;46.22;102712.88;5015206;28;20038;-60
2021/05/30 04:26:11;;;;;;;4.03;2.70;;;;;;;19.67;46.44;102707.69;5014691;28;20286;-61
2021/05/30 04:28:37;;;;;;;4.93;3.03;;;;;;;19.68;46.23;102722.63;5014621;28;20769;-62
2021/05/30 04:31:03;;;;;;;4.13;2.70;;;;;;;19.68;46.36;102709.41;5015006;28;20726;-61
2021/05/30 04:33:28;;;;;;;4.90;2.83;;;;;;;19.65;46.26;102706.94;5014756;28;20025;-61
2021/05/30 04:35:53;;;;;;;4.50;2.53;;;;;;;19.68;46.18;102711.19;5014515;28;20033;-61
2021/05/30 04:38:19;;;;;;;4.35;2.58;;;;;;;19.65;46.21;102711.38;5014661;28;20095;-61
2021/05/30 04:40:45;;;;;;;4.32;2.60;;;;;;;19.64;46.43;102717.59;5014576;28;20030;-61
2021/05/30 04:43:11;;;;;;;4.82;2.67;;;;;;;19.65;46.12;102711.38;5013732;28;20080;-60
2021/05/30 04:45:36;;;;;;;4.20;2.75;;;;;;;19.65;46.14;102712.22;5015012;28;20393;-61
2021/05/30 04:48:04;;;;;;;4.90;2.60;;;;;;;19.65;46.04;102716.66;5014433;28;20378;-60
2021/05/30 04:50:29;;;;;;;4.43;2.60;;;;;;;19.65;45.97;102716.66;5014198;28;20030;-61
2021/05/30 04:52:55;;;;;;;4.57;2.63;;;;;;;19.63;46.23;102708.81;5014527;28;20390;-61
2021/05/30 04:55:20;;;;;;;4.25;2.47;;;;;;;19.65;45.84;102717.50;5014267;28;20509;-60
2021/05/30 04:57:46;;;;;;;4.68;2.58;;;;;;;19.63;45.84;102719.41;5013963;28;20030;-61
2021/05/30 05:00:13;;;;;;;5.05;3.00;;;;;;;19.62;46.13;102715.03;5014335;28;20030;-60
2021/05/30 05:02:39;;;;;;;4.32;2.72;;;;;;;19.64;46.12;102721.09;5014114;28;20112;-60
2021/05/30 05:05:06;;;;;;;4.72;2.90;;;;;;;19.64;45.94;102721.09;5012549;28;20030;-61
2021/05/30 05:07:31;;;;;;;4.00;2.70;;;;;;;19.63;45.96;102718.53;5013291;28;20385;-61
2021/05/30 05:09:57;;;;;;;5.38;2.90;;;;;;;19.64;45.99;102726.38;5013285;28;20109;-60
2021/05/30 05:12:22;;;;;;;4.00;2.70;;;;;;;19.64;46.02;102717.59;5012753;28;20030;-60
2021/05/30 05:14:47;;;;;;;4.50;2.75;;;;;;;19.64;45.93;102717.59;5013237;28;20386;-60
2021/05/30 05:17:13;;;;;;;4.75;2.97;;;;;;;19.64;45.80;102715.78;5012594;28;20377;-61
2021/05/30 05:19:40;;;;;;;4.75;2.92;;;;;;;19.63;45.86;102708.81;5013356;28;20033;-60
2021/05/30 05:22:06;;;;;;;4.82;2.90;;;;;;;19.66;45.77;102718.34;5012709;28;20164;-60
2021/05/30 05:24:34;;;;;;;3.65;2.45;;;;;;;19.65;45.70;102717.50;5012467;28;20370;-60
2021/05/30 05:27:00;;;;;;;4.68;3.10;;;;;;;19.66;45.70;102715.69;5013368;28;20140;-60
2021/05/30 05:29:25;;;;;;;4.30;2.90;;;;;;;19.65;46.15;102720.16;5012694;28;20053;-60
2021/05/30 05:31:50;;;;;;;4.33;2.70;;;;;;;19.65;45.98;102722.78;5012380;28;20018;-60
2021/05/30 05:34:18;;;;;;;5.50;2.80;;;;;;;19.66;45.90;102728.94;5012763;28;20275;-60
2021/05/30 05:36:44;;;;;;;4.15;2.67;;;;;;;19.66;45.78;102723.63;5012733;28;20272;-61
2021/05/30 05:39:09;;;;;;;4.30;2.85;;;;;;;19.67;45.75;102735.94;5012165;28;20478;-63
2021/05/30 05:41:34;;;;;;;4.50;3.03;;;;;;;19.67;45.76;102726.19;5013073;28;20036;-61
2021/05/30 05:44:00;;;;;;;5.03;2.80;;;;;;;19.67;45.61;102728.00;5012625;28;20112;-61
2021/05/30 05:46:27;;;;;;;5.25;3.00;;;;;;;19.67;45.58;102728.00;5011757;28;20369;-62
2021/05/30 05:48:52;;;;;;;4.30;2.58;;;;;;;19.66;45.94;102728.94;5012838;28;20022;-60
2021/05/30 05:51:17;;;;;;;4.60;3.00;;;;;;;19.66;45.78;102729.81;5012109;28;20025;-61
2021/05/30 05:53:43;;;;;;;4.78;2.80;;;;;;;19.68;45.69;102727.06;5011180;28;20053;-61
2021/05/30 05:56:08;;;;;;;5.30;3.30;;;;;;;19.67;45.97;102725.34;5012243;28;20137;-61
2021/05/30 05:58:33;;;;;;;4.93;3.08;;;;;;;19.67;45.77;102725.34;5012507;28;20520;-61
2021/05/30 06:00:59;;;;;;;4.80;2.77;;;;;;;19.68;45.56;102724.44;5012071;28;20018;-61
2021/05/30 06:03:25;;;;;;;5.05;2.90;;;;;;;19.68;45.65;102721.78;4977299;28;1009428;-61
2021/05/30 06:05:50;;;;;;;5.22;3.45;;;;;;;19.68;45.72;102724.44;5013237;28;20481;-61
2021/05/30 06:08:15;;;;;;;5.13;3.50;;;;;;;19.68;45.51;102727.06;5012248;28;20385;-60
2021/05/30 06:10:40;;;;;;;4.13;2.70;;;;;;;19.68;46.02;102727.06;5013038;28;20416;-60
2021/05/30 06:13:10;;;;;;;5.18;3.00;;;;;;;19.67;45.59;102726.19;5012616;28;20275;-60
2021/05/30 06:15:36;;;;;;;5.07;3.08;;;;;;;19.67;45.75;102730.66;5012553;28;20421;-60
2021/05/30 06:18:09;;;;;;;4.43;2.88;;;;;;;19.67;45.66;102730.66;5012672;28;20068;-62
2021/05/30 06:20:35;;;;;;;4.57;2.93;;;;;;;19.68;45.74;102727.91;5012434;28;20041;-62
2021/05/30 06:23:03;;;;;;;4.35;2.90;;;;;;;19.67;45.86;102725.34;5012848;28;20040;-60
2021/05/30 06:25:29;;;;;;;6.00;3.35;;;;;;;19.67;46.06;102726.19;5012844;28;20037;-61
2021/05/30 06:27:56;;;;;;;5.20;3.00;;;;;;;19.67;45.71;102726.19;5012505;28;20030;-61
2021/05/30 06:30:26;;;;;;;4.68;3.10;;;;;;;19.68;46.09;102733.19;5012656;28;20058;-60
2021/05/30 06:32:51;;;;;;;4.72;2.75;;;;;;;19.69;45.70;102726.09;5012438;28;20470;-60
2021/05/30 06:35:20;;;;;;;4.35;3.10;;;;;;;19.68;46.04;102722.63;5011913;28;20048;-60
2021/05/30 06:37:45;;;;;;;4.43;3.10;;;;;;;19.70;45.98;102728.66;5012764;28;20462;-60
2021/05/30 06:40:11;;;;;;;4.72;3.17;;;;;;;19.71;46.01;102726.84;5012097;28;20034;-61
2021/05/30 06:42:36;;;;;;;4.88;3.10;;;;;;;19.71;46.30;102730.38;5012143;28;20029;-60
2021/05/30 06:45:02;;;;;;;5.05;3.58;;;;;;;19.72;46.31;102721.47;5012283;28;20316;-61
2021/05/30 06:47:27;;;;;;;5.30;3.50;;;;;;;19.75;46.88;102728.41;5012199;28;20029;-61
2021/05/30 06:49:52;;;;;;;5.35;3.40;;;;;;;19.75;46.94;102728.41;5011852;28;20031;-60
2021/05/30 06:52:18;;;;;;;6.70;3.37;;;;;;;19.78;46.71;102730.06;5011974;28;20026;-61
2021/05/30 06:54:43;;;;;;;4.45;3.17;;;;;;;19.80;47.26;102731.66;5012496;28;20271;-61
2021/05/30 06:57:08;;;;;;;5.05;2.95;;;;;;;19.88;47.77;102736.50;5011548;28;20371;-58
2021/05/30 06:59:35;;;;;;;5.88;2.80;;;;;;;19.91;46.94;102731.88;5012312;28;20049;-59
2021/05/30 07:02:00;;;;;;;4.55;2.97;;;;;;;19.94;46.85;102729.03;5012357;28;20045;-58
2021/05/30 07:04:32;;;;;;;5.87;2.70;;;;;;;19.94;47.02;102726.38;5010962;28;20409;-58
2021/05/30 07:06:58;;;;;;;5.28;2.70;;;;;;;19.96;47.07;102728.94;4970466;28;20266;-59
2021/05/30 07:09:23;;;;;;;6.32;3.10;;;;;;;19.97;47.22;102727.19;5031522;28;20036;-61
2021/05/30 07:11:49;;;;;;;3.97;2.53;;;;;;;19.97;47.18;102727.19;5031488;28;20108;-58
2021/05/30 07:14:14;;;;;;;5.40;3.20;;;;;;;19.98;47.31;102728.84;5031222;28;20028;-58
2021/05/30 07:16:39;;;;;;;4.88;2.90;;;;;;;19.98;46.97;102720.91;5031872;28;20083;-58
2021/05/30 07:19:07;;;;;;;5.57;2.88;;;;;;;19.98;47.15;102731.50;5030949;28;20029;-58
2021/05/30 07:21:33;;;;;;;4.55;2.83;;;;;;;19.97;47.17;102721.88;5031773;28;20029;-57
2021/05/30 07:23:58;;;;;;;5.13;2.75;;;;;;;19.99;47.30;102726.13;5031410;28;20352;-58
2021/05/30 07:26:23;;;;;;;4.70;3.17;;;;;;;20.00;47.35;102727.84;5031615;28;20049;-58
2021/05/30 07:28:49;;;;;;;4.30;2.80;;;;;;;20.01;47.43;102726.91;5031418;28;20029;-57
2021/05/30 07:31:17;;;;;;;5.10;3.05;;;;;;;20.03;47.75;102729.47;5030900;28;20021;-57
2021/05/30 07:33:43;;;;;;;4.10;2.70;;;;;;;20.03;47.71;102737.41;5031566;28;20091;-57
2021/05/30 07:36:12;;;;;;;5.13;3.00;;;;;;;20.01;47.58;102726.91;5031338;28;20457;-56
2021/05/30 07:38:37;;;;;;;5.05;3.30;;;;;;;20.03;48.07;102726.81;5029844;28;20029;-58
2021/05/30 07:41:03;;;;;;;5.55;3.30;;;;;;;20.05;48.06;102732.84;5031204;28;20033;-57
2021/05/30 07:43:28;;;;;;;6.50;3.30;;;;;;;20.08;47.96;102735.31;5031337;28;20025;-57
2021/05/30 07:45:54;;;;;;;6.63;3.40;;;;;;;20.09;48.19;102734.34;5031112;28;20029;-56
2021/05/30 07:48:20;;;;;;;6.75;3.67;;;;;;;20.12;48.23;102731.53;5031898;28;20022;-57
2021/05/30 07:50:48;;;;;;;6.40;3.10;;;;;;;20.15;47.93;102741.94;5032464;28;20047;-58
2021/05/30 07:53:15;;;;;;;4.63;3.22;;;;;;;20.18;48.10;102738.25;5030943;28;20470;-58
2021/05/30 07:55:41;;;;;;;7.72;3.30;;;;;;;20.20;48.35;102741.66;5031782;28;20033;-58
2021/05/30 07:58:07;;;;;;;6.57;3.67;;;;;;;20.21;48.16;102736.28;5031854;28;20040;-59
2021/05/30 08:00:32;;;;;;;5.20;3.30;;;;;;;20.25;48.28;102737.81;5031508;28;20021;-58
2021/05/30 08:02:58;;;;;;;5.63;3.13;;;;;;;20.27;48.31;102732.41;5031350;28;20374;-58
2021/05/30 08:05:23;;;;;;;5.78;3.10;;;;;;;20.28;48.39;102734.09;5032493;28;20029;-59
2021/05/30 08:07:51;;;;;;;5.10;3.03;;;;;;;20.25;48.09;102732.50;5031174;28;20388;-58
2021/05/30 08:10:18;;;;;;;5.75;3.10;;;;;;;20.27;48.25;102729.78;5031521;28;20048;-56
2021/05/30 08:12:43;;;;;;;5.90;3.67;;;;;;;20.27;48.42;102732.41;5031799;28;20036;-58
2021/05/30 08:15:16;;;;;;;5.18;3.10;;;;;;;20.25;48.12;102737.81;5032296;28;20033;-58
2021/05/30 08:17:45;;;;;;;6.97;3.22;;;;;;;20.27;48.16;102730.63;5032765;28;20033;-56
2021/05/30 08:20:14;;;;;;;4.90;3.13;;;;;;;20.28;48.27;102734.97;5035332;28;20029;-59
2021/05/30 08:22:40;;;;;;;5.97;3.05;;;;;;;20.33;48.13;102733.81;5036370;28;20168;-58
2021/05/30 08:25:06;;;;;;;5.32;3.38;;;;;;;20.33;48.27;102728.53;5034646;28;20520;-57
2021/05/30 08:27:32;;;;;;;4.68;3.20;;;;;;;20.32;48.29;102724.19;5034387;28;20389;-58
2021/05/30 08:29:57;;;;;;;5.13;2.90;;;;;;;20.31;48.22;102728.63;5034704;28;20021;-58
2021/05/30 08:32:23;;;;;;;6.13;3.38;;;;;;;20.34;48.37;102731.09;5034825;28;20036;-58
2021/05/30 08:34:49;;;;;;;7.80;3.35;;;;;;;20.35;48.47;102727.50;5034295;28;20036;-57
2021/05/30 08:37:15;;;;;;;4.50;2.88;;;;;;;20.37;48.61;102732.69;5034768;28;20025;-58
2021/05/30 08:39:41;;;;;;;4.88;3.00;;;;;;;20.37;48.15;102730.06;5034730;28;20072;-58
2021/05/30 08:42:06;;;;;;;5.25;2.85;;;;;;;20.37;48.39;102725.59;5034096;28;20041;-57
2021/05/30 08:44:31;;;;;;;4.65;2.70;;;;;;;20.38;48.25;102724.66;5034097;28;20477;-57
2021/05/30 08:46:57;;;;;;;4.93;2.97;;;;;;;20.38;48.24;102721.19;5034651;28;20037;-57
2021/05/30 08:49:22;;;;;;;5.47;2.88;;;;;;;20.39;48.10;102726.34;5033355;28;20026;-57
2021/05/30 08:51:47;;;;;;;5.68;2.67;;;;;;;20.38;48.24;102719.38;5034086;28;20029;-58
2021/05/30 08:54:18;;;;;;;4.72;2.92;;;;;;;20.38;47.99;102721.19;5033871;28;20036;-55
2021/05/30 08:56:45;;;;;;;4.85;2.90;;;;;;;20.36;48.14;102718.63;5033588;28;20076;-56
2021/05/30 08:59:37;;;;;;;5.38;3.08;;;;;;;20.38;48.39;102729.13;5033792;28;20556;-54
2021/05/30 09:02:10;;;;;;;5.65;3.15;;;;;;;20.39;48.09;102722.84;5034265;28;20030;-55
2021/05/30 09:04:36;;;;;;;4.60;2.85;;;;;;;20.38;48.17;102715.88;5033573;28;20108;-55
2021/05/30 09:07:02;;;;;;;5.10;3.08;;;;;;;20.40;48.08;102722.75;5033997;28;20041;-57
2021/05/30 09:09:44;;;;;;;5.68;2.90;;;;;;;20.44;48.38;102718.13;5033600;28;20426;-56
2021/05/30 09:12:29;;;;;;;4.68;2.50;;;;;;;20.46;48.55;102713.59;5033839;28;20358;-58
2021/05/30 09:14:56;;;;;;;4.03;2.60;;;;;;;20.46;48.26;102714.44;5034170;28;20105;-54
2021/05/30 09:17:29;;;;;;;4.35;2.50;;;;;;;20.46;48.58;102713.59;5033123;28;20477;-56
2021/05/30 09:19:58;;;;;;;5.30;2.80;;;;;;;20.47;48.34;102710.00;5032201;28;20021;-58
2021/05/30 09:22:28;;;;;;;7.50;2.95;;;;;;;20.47;48.20;102708.22;5033338;28;20124;-59
2021/05/30 09:25:13;;;;;;;6.07;2.60;;;;;;;20.49;48.10;102710.78;5033048;28;20125;-58
2021/05/30 09:27:44;;;;;;;4.30;2.40;;;;;;;20.50;48.18;102706.31;5033374;28;20030;-57
2021/05/30 09:30:20;;;;;;;5.20;2.88;;;;;;;20.50;48.23;102704.50;5031739;28;20465;-59
2021/05/30 09:33:03;;;;;;;4.38;2.50;;;;;;;20.50;47.93;102703.66;5033272;28;20402;-58
2021/05/30 09:35:37;;;;;;;4.63;2.53;;;;;;;20.50;48.19;102712.44;5033219;28;20447;-59
2021/05/30 09:38:08;;;;;;;6.03;2.67;;;;;;;20.50;48.03;102716.91;5032797;28;20025;-57
2021/05/30 09:40:35;;;;;;;5.50;2.70;;;;;;;20.48;47.88;102706.41;5033377;28;20029;-57
2021/05/30 09:43:05;;;;;;;4.93;3.03;;;;;;;20.47;47.71;102700.28;5032976;28;20076;-59
2021/05/30 09:45:30;;;;;;;5.18;2.42;;;;;;;20.47;47.85;102694.09;5033135;28;20083;-58
2021/05/30 09:47:56;;;;;;;5.70;2.88;;;;;;;20.47;47.85;102696.75;5033195;28;20033;-57
2021/05/30 09:50:21;;;;;;;4.82;2.58;;;;;;;20.47;46.73;102694.97;5032655;28;20033;-58
2021/05/30 09:52:51;;;;;;;8.43;3.50;;;;;;;20.45;45.01;102694.19;5032549;28;20108;-60
2021/05/30 09:55:26;;;;;;;5.90;3.45;;;;;;;20.41;44.03;102690.06;5032454;28;20049;-58
2021/05/30 09:58:14;;;;;;;7.10;3.53;;;;;;;20.39;43.54;102688.44;5033401;28;20076;-59
2021/05/30 10:00:45;;;;;;;5.57;3.40;;;;;;;20.35;43.41;102686.94;5032744;28;20029;-58
2021/05/30 10:03:11;;;;;;;7.25;2.95;;;;;;;20.29;42.84;102677.56;5032305;28;20041;-58
2021/05/30 10:05:37;;;;;;;5.80;3.38;;;;;;;20.28;41.64;102679.38;5032468;28;20017;-57
2021/05/30 10:08:04;;;;;;;6.47;4.20;;;;;;;20.23;41.79;102670.00;5032582;28;20039;-57
2021/05/30 10:10:31;;;;;;;6.63;3.47;;;;;;;20.22;42.13;102677.09;5032458;28;20025;-57
2021/05/30 10:12:58;;;;;;;5.60;3.40;;;;;;;20.20;41.65;102679.00;5032250;28;20469;-58
2021/05/30 10:15:23;;;;;;;5.75;3.17;;;;;;;20.22;41.13;102679.75;5032441;28;20048;-57
2021/05/30 10:17:52;;;;;;;4.60;3.03;;;;;;;20.22;41.32;102677.09;5032569;28;20026;-57
2021/05/30 10:20:21;;;;;;;7.15;3.38;;;;;;;20.24;41.63;102680.50;5031687;28;20271;-57
2021/05/30 10:22:51;;;;;;;6.03;2.95;;;;;;;20.25;41.29;102683.97;5032781;28;20028;-57
2021/05/30 10:25:26;;;;;;;5.25;3.47;;;;;;;20.24;40.94;102675.19;5032373;28;20507;-58
2021/05/30 10:28:17;;;;;;;5.57;3.17;;;;;;;20.25;41.21;102674.25;5032324;28;20025;-58
2021/05/30 10:30:50;;;;;;;5.72;3.05;;;;;;;20.26;41.28;102678.59;5032219;28;20132;-57
2021/05/30 10:33:24;;;;;;;4.93;2.70;;;;;;;20.27;41.04;102676.81;5032464;28;20040;-58
2021/05/30 10:35:54;;;;;;;5.18;3.50;;;;;;;20.27;40.81;102672.38;5032043;28;20488;-57
2021/05/30 10:38:38;;;;;;;4.88;2.95;;;;;;;20.29;40.95;102675.75;5031972;28;20025;-57
2021/05/30 10:41:17;;;;;;;5.18;2.70;;;;;;;20.32;41.06;102669.44;5031141;28;20102;-57
2021/05/30 10:43:43;;;;;;;4.28;2.45;;;;;;;20.30;40.34;102664.22;5032443;28;20118;-57
2021/05/30 10:46:12;;;;;;;6.28;2.72;;;;;;;20.30;39.48;102658.94;5032043;28;20476;-57
2021/05/30 10:48:39;;;;;;;4.72;2.47;;;;;;;20.31;39.45;102657.13;5031964;28;20040;-57
2021/05/30 10:53:53;;;;;;;4.65;2.30;;;;;;;20.33;39.13;102654.38;5032341;28;20037;-58
2021/05/30 10:56:31;;;;;;;3.90;2.20;;;;;;;20.35;39.75;102668.41;5031694;28;20088;-57
2021/05/30 10:59:05;;;;;;;3.83;2.25;;;;;;;20.36;39.84;102656.84;5031918;28;20465;-58
2021/05/30 11:01:34;;;;;;;;;;;;;;;20.38;38.97;102652.34;5032665;28;20074;-57
2021/05/30 11:04:25;;;;;;;4.22;2.40;;;;;;;20.40;39.07;102650.44;5031161;28;19917;-58
2021/05/30 11:06:53;;;;;;;5.10;1.80;;;;;;;20.41;39.29;102642.38;5023821;28;20041;-57
2021/05/30 11:09:19;;;;;;;3.70;1.95;;;;;;;20.42;39.48;102633.47;5031282;28;20036;-57
2021/05/30 11:11:44;;;;;;;4.45;1.85;;;;;;;20.44;39.58;102625.44;5032097;28;20029;-58
2021/05/30 11:14:11;;;;;;;5.32;2.03;;;;;;;20.47;39.13;102635.84;5031713;28;20041;-58
2021/05/30 11:16:48;;;;;;;4.65;1.95;;;;;;;20.48;38.06;102638.38;5031419;28;20484;-58
2021/05/30 11:19:15;;;;;;;5.65;1.80;;;;;;;20.50;37.03;102635.66;5031665;28;20072;-59
2021/05/30 11:21:47;;;;;;;4.50;2.20;;;;;;;20.52;37.84;102622.31;5032218;28;20028;-57
2021/05/30 11:24:15;;;;;;;3.97;1.80;;;;;;;20.52;37.51;102617.88;5031149;28;20026;-58
2021/05/30 11:27:02;;;;;;;5.35;2.10;;;;;;;20.54;37.49;102615.97;5031651;28;20052;-59
2021/05/30 11:29:29;;;;;;;2.70;1.50;;;;;;;20.56;37.23;102615.88;5031904;28;20022;-57
2021/05/30 11:31:55;;;;;;;3.65;1.67;;;;;;;20.56;37.10;102600.81;5031476;28;20134;-57
2021/05/30 11:34:34;;;;;;;5.25;1.70;;;;;;;20.60;37.18;102612.94;5031252;28;20028;-55
2021/05/30 11:37:11;;;;;;;3.55;1.60;;;;;;;20.62;36.61;102610.19;5031454;28;20025;-58
2021/05/30 11:39:41;;;;;;;2.97;1.50;;;;;;;20.64;36.74;102621.56;5031579;28;20144;-58
2021/05/30 11:42:07;;;;;;;3.85;1.60;;;;;;;20.66;36.53;102611.72;5031136;28;20421;-57
2021/05/30 11:44:33;;;;;;;5.43;1.90;;;;;;;20.67;36.61;102600.19;5031166;28;20021;-56
2021/05/30 11:47:00;;;;;;;3.47;1.67;;;;;;;20.69;36.21;102603.56;5031654;28;20068;-59
2021/05/30 11:49:33;;;;;;;4.93;1.65;;;;;;;20.70;36.33;102605.28;5031491;28;20030;-58
2021/05/30 11:52:07;;;;;;;5.77;2.20;;;;;;;20.72;36.23;102598.06;5031525;28;20028;-58
2021/05/30 11:54:44;;;;;;;3.97;2.03;;;;;;;20.72;35.99;102598.06;5035659;28;20028;-57
2021/05/30 11:57:15;;;;;;;3.15;1.70;;;;;;;20.74;36.38;102592.66;5035602;28;20044;-57
2021/05/30 12:00:03;;;;;;;3.92;1.80;;;;;;;20.76;36.77;102602.22;5035133;28;20073;-57
2021/05/30 12:02:40;;;;;;;3.40;1.70;;;;;;;20.78;36.28;102596.84;5035038;28;20083;-55
2021/05/30 12:05:09;;;;;;;4.65;2.05;;;;;;;20.79;35.71;102594.09;5035019;28;20057;-57
2021/05/30 12:07:35;;;;;;;5.38;1.80;;;;;;;20.82;35.76;102598.31;5035319;28;20052;-58
2021/05/30 12:10:03;;;;;;;3.75;1.88;;;;;;;20.83;35.55;102595.56;5035304;28;20029;-58
2021/05/30 12:12:33;;;;;;;2.97;1.60;;;;;;;20.83;35.54;102582.31;5034680;28;20025;-57
2021/05/30 12:15:11;;;;;;;3.85;1.83;;;;;;;20.84;36.34;102593.78;5034973;28;20493;-57
2021/05/30 12:17:43;;;;;;;3.78;1.65;;;;;;;20.82;36.74;102587.72;5035173;28;20460;-57
2021/05/30 12:20:20;;;;;;;3.85;1.73;;;;;;;20.82;36.91;102585.06;5034378;28;20026;-58
2021/05/30 12:22:45;;;;;;;4.88;2.03;;;;;;;20.80;37.37;102593.13;5034397;28;20052;-57
2021/05/30 12:25:11;;;;;;;4.13;1.60;;;;;;;20.81;37.44;102586.03;5034704;28;20033;-57
2021/05/30 12:27:37;;;;;;;3.30;1.70;;;;;;;20.80;37.16;102585.16;5034474;28;20033;-57
2021/05/30 12:30:04;;;;;;;3.88;1.60;;;;;;;20.80;37.73;102576.38;5034633;28;20100;-57
2021/05/30 12:32:29;;;;;;;4.28;1.60;;;;;;;20.82;37.78;102567.38;5034954;28;20096;-58